Time;durP1;ratioP1;P1;durP2;ratioP2;P2;SDS_P1;SDS_P2;PMS_P1;PMS_P2;Temp;Humidity;BMP_temperature;BMP_pressure;BME280_temperature;BME280_humidity;BME280_pressure;Samples;Min_cycle;Max_cycle;Signal;HPM_P1;HPM_P2
2022/03/18 00:01:26;;;;;;;16.70;7.88;;;;;;;7.28;61.75;103787.84;5049053;28;20117;-48
2022/03/18 00:03:54;;;;;;;15.05;7.10;;;;;;;7.32;61.16;103791.06;5037041;28;20045;-45
2022/03/18 00:06:22;;;;;;;15.05;7.68;;;;;;;7.31;60.65;103790.22;5037029;28;20470;-44
2022/03/18 00:08:50;;;;;;;14.13;7.38;;;;;;;7.25;61.22;103797.16;5035891;28;20049;-42
2022/03/18 00:11:18;;;;;;;16.30;8.18;;;;;;;7.19;61.35;103797.00;5036626;28;20068;-42
2022/03/18 00:13:46;;;;;;;15.32;7.65;;;;;;;7.16;61.58;103803.63;5003047;28;20053;-41
2022/03/18 00:16:13;;;;;;;13.25;7.38;;;;;;;7.16;61.04;103800.91;5036903;28;20555;-42
2022/03/18 00:18:41;;;;;;;14.93;7.25;;;;;;;7.17;61.15;103799.91;5050096;28;20098;-41
2022/03/18 00:21:10;;;;;;;16.70;7.97;;;;;;;7.21;61.44;103798.50;5050710;28;20051;-41
2022/03/18 00:23:37;;;;;;;15.43;7.82;;;;;;;7.27;60.94;103793.44;5056639;28;20080;-41
2022/03/18 00:26:05;;;;;;;16.13;8.07;;;;;;;7.27;60.85;103798.88;5056235;28;20037;-42
2022/03/18 00:28:33;;;;;;;17.80;8.20;;;;;;;7.22;60.80;103800.22;5051654;28;20505;-41
2022/03/18 00:31:03;;;;;;;22.45;8.77;;;;;;;7.13;61.24;103797.69;5043772;28;20040;-42
2022/03/18 00:33:31;;;;;;;16.80;7.80;;;;;;;7.06;61.59;103794.81;5036176;28;20061;-45
2022/03/18 00:35:59;;;;;;;15.80;8.18;;;;;;;6.99;61.55;103791.09;5036905;28;20408;-45
2022/03/18 00:38:27;;;;;;;14.32;8.07;;;;;;;6.94;61.99;103798.91;5035329;28;20041;-45
2022/03/18 00:40:56;;;;;;;14.38;7.95;;;;;;;6.89;61.52;103802.13;5035135;28;20037;-42
2022/03/18 00:43:23;;;;;;;16.00;8.45;;;;;;;6.90;61.69;103802.97;5037422;28;20069;-44
2022/03/18 00:45:51;;;;;;;19.08;8.70;;;;;;;6.89;61.44;103809.41;5050671;28;20044;-45
2022/03/18 00:53:52;;;;;;;17.77;6.72;;;;;;;6.99;61.58;103823.63;5056243;28;20051;-47
2022/03/18 00:56:19;;;;;;;16.48;6.72;;;;;;;6.99;60.73;103823.63;5046749;28;20519;-45
2022/03/18 00:58:47;;;;;;;14.70;7.15;;;;;;;6.96;61.52;103823.97;5056479;28;20052;-46
2022/03/18 01:01:15;;;;;;;13.82;6.25;;;;;;;6.94;60.82;103826.00;5054719;28;20041;-41
2022/03/18 01:03:43;;;;;;;14.15;6.53;;;;;;;6.90;61.19;103824.66;5055942;28;20045;-44
2022/03/18 01:06:10;;;;;;;12.95;5.85;;;;;;;6.87;60.27;103831.25;5046567;28;20054;-44
2022/03/18 01:08:38;;;;;;;14.48;6.13;;;;;;;6.75;60.05;103830.72;5036870;28;20033;-42
2022/03/18 01:11:05;;;;;;;12.88;5.82;;;;;;;6.54;60.74;103835.78;5034866;28;20435;-43
2022/03/18 01:13:33;;;;;;;12.60;5.55;;;;;;;6.45;61.50;103837.66;5034457;28;20049;-41
2022/03/18 01:16:01;;;;;;;13.63;6.18;;;;;;;6.51;61.76;103841.53;5035825;28;20052;-42
2022/03/18 01:18:28;;;;;;;11.77;5.75;;;;;;;6.59;61.65;103836.13;5034509;28;20075;-42
2022/03/18 01:20:56;;;;;;;12.27;6.18;;;;;;;6.67;61.38;103835.31;5036843;28;20488;-43
2022/03/18 01:23:24;;;;;;;13.77;5.70;;;;;;;6.64;60.57;103839.22;5034343;28;20067;-45
2022/03/18 01:25:51;;;;;;;12.98;5.97;;;;;;;6.62;60.65;103833.09;5044538;28;20040;-45
2022/03/18 01:28:19;;;;;;;11.25;5.72;;;;;;;6.62;60.83;103833.09;5055696;28;20041;-45
2022/03/18 01:30:47;;;;;;;11.65;5.75;;;;;;;6.60;61.10;103838.69;5055572;28;20471;-47
2022/03/18 01:33:14;;;;;;;13.70;6.13;;;;;;;6.59;60.70;103841.53;5053368;28;20053;-45
2022/03/18 01:35:42;;;;;;;13.18;5.88;;;;;;;6.59;60.70;103837.00;5050017;28;20044;-44
2022/03/18 01:38:10;;;;;;;13.10;6.40;;;;;;;6.60;60.51;103845.97;5055553;28;20124;-46
2022/03/18 01:40:37;;;;;;;13.23;5.80;;;;;;;6.56;60.27;103840.03;5040927;28;20049;-45
2022/03/18 01:43:10;;;;;;;15.30;5.63;;;;;;;6.56;60.92;103844.59;5034341;28;20053;-46
2022/03/18 01:45:38;;;;;;;12.68;5.13;;;;;;;6.57;60.79;103840.88;5043114;28;20051;-48
2022/03/18 01:48:07;;;;;;;11.70;5.10;;;;;;;6.52;60.56;103837.84;5055471;28;20394;-48
2022/03/18 01:50:35;;;;;;;12.98;5.18;;;;;;;6.46;60.52;103833.06;5055099;28;20045;-45
2022/03/18 01:53:02;;;;;;;13.93;5.15;;;;;;;6.45;60.71;103834.09;5055121;28;20044;-48
2022/03/18 01:55:30;;;;;;;10.40;4.90;;;;;;;6.41;61.08;103836.28;5054039;28;20041;-45
2022/03/18 01:57:58;;;;;;;10.45;4.88;;;;;;;6.45;60.86;103831.38;5035769;28;20519;-47
2022/03/18 02:00:26;;;;;;;12.73;5.35;;;;;;;6.47;60.89;103823.91;5055006;28;20045;-47
2022/03/18 02:02:53;;;;;;;11.05;4.80;;;;;;;6.45;60.79;103821.41;5053416;28;20487;-44
2022/03/18 02:05:21;;;;;;;10.77;4.70;;;;;;;6.47;61.38;103821.22;5044862;28;20055;-46
2022/03/18 02:07:49;;;;;;;10.25;4.35;;;;;;;6.47;61.45;103821.22;5034836;28;20047;-43
2022/03/18 02:10:17;;;;;;;12.38;4.47;;;;;;;6.46;60.69;103833.91;5020644;28;20034;-43
2022/03/18 02:12:44;;;;;;;11.90;4.60;;;;;;;6.37;60.66;103852.03;5053166;28;20037;-42
2022/03/18 02:15:18;;;;;;;9.93;4.22;;;;;;;6.22;60.84;103845.53;5053903;28;20127;-45
2022/03/18 02:17:46;;;;;;;10.00;4.10;;;;;;;6.11;61.25;103851.22;5049283;28;20045;-45
2022/03/18 02:20:14;;;;;;;9.90;4.78;;;;;;;6.06;61.83;103853.59;5035111;28;20042;-46
2022/03/18 02:22:41;;;;;;;11.45;4.10;;;;;;;6.11;62.24;103853.94;5035507;28;20051;-46
2022/03/18 02:25:12;;;;;;;13.15;4.70;;;;;;;6.18;62.74;103855.84;5044066;28;20049;-47
2022/03/18 02:27:41;;;;;;;11.13;4.30;;;;;;;6.22;61.70;103859.06;5047832;28;20042;-48
2022/03/18 02:30:09;;;;;;;9.65;4.15;;;;;;;6.17;61.83;103864.13;5034525;28;20041;-48
2022/03/18 02:32:37;;;;;;;13.15;4.63;;;;;;;6.11;61.86;103864.78;5066133;28;20055;-47
2022/03/18 02:35:05;;;;;;;10.18;4.38;;;;;;;6.05;61.93;103866.28;5039522;28;20045;-47
2022/03/18 02:37:32;;;;;;;9.52;4.15;;;;;;;6.00;61.83;103867.78;5034140;28;20045;-49
2022/03/18 02:40:02;;;;;;;10.02;4.25;;;;;;;5.92;61.87;103869.41;5034449;28;20048;-48
2022/03/18 02:42:29;;;;;;;9.60;4.07;;;;;;;5.89;62.38;103869.75;5033312;28;20132;-44
2022/03/18 02:44:57;;;;;;;13.00;4.05;;;;;;;5.87;62.39;103885.28;5042593;28;20111;-46
2022/03/18 02:47:25;;;;;;;13.45;4.35;;;;;;;5.84;62.58;103879.34;5051332;28;20072;-42
2022/03/18 02:49:52;;;;;;;9.75;4.20;;;;;;;5.83;62.97;103870.38;5053977;28;20045;-45
2022/03/18 02:52:20;;;;;;;10.57;3.83;;;;;;;5.77;62.57;103879.13;5052886;28;20041;-46
2022/03/18 02:54:48;;;;;;;9.27;4.05;;;;;;;5.66;63.18;103869.44;5052304;28;20041;-43
2022/03/18 02:57:15;;;;;;;9.75;3.90;;;;;;;5.67;63.06;103870.28;5053690;28;20395;-46
2022/03/18 02:59:43;;;;;;;10.85;4.40;;;;;;;5.69;63.91;103874.50;5049254;28;20132;-45
2022/03/18 03:02:12;;;;;;;14.48;4.20;;;;;;;5.72;64.12;103873.34;5032489;28;20042;-44
2022/03/18 03:07:58;;;;;;;10.10;4.30;;;;;;;5.77;63.56;103873.72;5033848;28;20048;-46
2022/03/18 03:10:13;;;;;;;;;;;;;;;5.94;63.70;103886.38;5035383;28;20041;-47
2022/03/18 03:12:41;;;;;;;14.80;4.40;;;;;;;5.98;64.64;103885.03;5034505;28;19921;-45
2022/03/18 03:15:10;;;;;;;12.85;4.88;;;;;;;5.98;64.37;103876.06;5032347;28;20053;-46
2022/03/18 03:17:38;;;;;;;11.13;4.18;;;;;;;5.93;62.92;103890.03;5033745;28;20029;-46
2022/03/18 03:20:08;;;;;;;11.82;4.32;;;;;;;5.87;62.92;103890.69;5033674;28;20120;-48
2022/03/18 03:22:36;;;;;;;9.88;4.15;;;;;;;5.80;63.01;103886.94;5050079;28;20100;-46
2022/03/18 03:25:04;;;;;;;9.25;4.10;;;;;;;5.77;63.08;103892.66;5045714;28;20041;-45
2022/03/18 03:27:33;;;;;;;10.60;4.00;;;;;;;5.81;63.29;103899.44;5032285;28;20049;-45
2022/03/18 03:30:03;;;;;;;12.50;4.10;;;;;;;5.81;63.39;103899.44;5036373;28;20487;-45
2022/03/18 03:32:31;;;;;;;9.32;3.97;;;;;;;5.81;62.95;103901.31;5050658;28;20053;-46
2022/03/18 03:34:59;;;;;;;13.52;4.47;;;;;;;5.78;63.12;103907.06;5052795;28;20052;-46
2022/03/18 03:37:27;;;;;;;11.48;4.00;;;;;;;5.69;63.11;103911.56;5050176;28;20407;-45
2022/03/18 03:39:55;;;;;;;8.90;3.92;;;;;;;5.61;63.31;103906.09;5051624;28;20037;-46
2022/03/18 03:42:23;;;;;;;11.00;3.90;;;;;;;5.53;63.51;103902.31;5033293;28;20056;-44
2022/03/18 03:44:50;;;;;;;8.48;3.85;;;;;;;5.52;63.63;103908.72;5033554;28;20041;-45
2022/03/18 03:47:18;;;;;;;9.10;3.92;;;;;;;5.51;63.98;103915.16;5033871;28;20500;-46
2022/03/18 03:49:46;;;;;;;8.95;4.20;;;;;;;5.47;63.86;103921.03;5033222;28;20033;-46
2022/03/18 03:52:14;;;;;;;10.55;4.03;;;;;;;5.41;64.01;103927.06;5031900;28;20403;-46
2022/03/18 03:54:42;;;;;;;15.18;4.50;;;;;;;5.38;64.06;103922.81;5031746;28;20049;-46
2022/03/18 03:57:09;;;;;;;10.88;3.78;;;;;;;5.31;64.01;103928.00;5032936;28;20048;-46
2022/03/18 03:59:37;;;;;;;9.88;3.92;;;;;;;5.29;64.93;103919.22;5031782;28;20041;-46
2022/03/18 04:02:05;;;;;;;11.07;4.18;;;;;;;5.29;64.62;103926.44;5045758;28;20045;-46
2022/03/18 04:04:33;;;;;;;11.77;3.85;;;;;;;5.27;64.82;103933.91;5032962;28;20065;-44
2022/03/18 04:07:00;;;;;;;9.73;3.88;;;;;;;5.25;65.07;103933.19;5032771;28;20049;-45
2022/03/18 04:09:29;;;;;;;8.77;3.95;;;;;;;5.26;64.91;103943.84;5033281;28;20045;-48
2022/03/18 04:11:57;;;;;;;10.07;4.15;;;;;;;5.31;64.84;103946.06;5035008;28;20044;-47
2022/03/18 04:14:25;;;;;;;10.88;4.10;;;;;;;5.37;64.94;103950.88;5034390;28;20107;-44
2022/03/18 04:16:53;;;;;;;10.23;4.63;;;;;;;5.44;64.52;103949.25;5032679;28;20044;-45
2022/03/18 04:19:20;;;;;;;12.32;4.32;;;;;;;5.50;64.04;103954.00;5033060;28;20042;-46
2022/03/18 04:21:48;;;;;;;10.30;4.30;;;;;;;5.42;63.93;103959.38;5050965;28;20182;-46
2022/03/18 04:24:16;;;;;;;9.15;3.70;;;;;;;5.31;63.93;103959.59;5052814;28;20045;-47
2022/03/18 04:26:43;;;;;;;9.98;4.35;;;;;;;5.27;64.24;103960.94;5045885;28;20048;-45
2022/03/18 04:29:12;;;;;;;9.98;3.90;;;;;;;5.26;64.28;103962.75;5031679;28;20084;-45
2022/03/18 04:31:41;;;;;;;9.93;3.92;;;;;;;5.27;64.30;103961.78;5036089;28;20112;-45
2022/03/18 04:34:09;;;;;;;10.00;4.40;;;;;;;5.26;64.18;103970.03;5032443;28;20136;-46
2022/03/18 04:36:36;;;;;;;9.05;4.00;;;;;;;5.24;64.36;103967.50;5032732;28;20052;-46
2022/03/18 04:39:04;;;;;;;10.70;4.40;;;;;;;5.23;64.55;103964.94;5040595;28;20051;-47
2022/03/18 04:41:31;;;;;;;9.18;4.40;;;;;;;5.24;64.73;103969.31;5032604;28;20516;-47
2022/03/18 04:44:01;;;;;;;10.40;3.92;;;;;;;5.28;64.70;103968.88;5032493;28;20435;-46
2022/03/18 04:46:31;;;;;;;10.77;4.28;;;;;;;5.31;64.46;103970.41;5035442;28;20045;-46
2022/03/18 04:48:59;;;;;;;11.95;4.40;;;;;;;5.30;64.84;103974.13;5036573;28;20056;-46
2022/03/18 04:51:27;;;;;;;10.15;4.20;;;;;;;5.27;65.05;103966.34;5018935;28;20041;-44
2022/03/18 04:53:55;;;;;;;11.18;4.63;;;;;;;5.26;65.06;103972.72;5036296;28;20496;-45
2022/03/18 04:59:09;;;;;;;;;;;;;;;5.24;65.08;103989.13;5037085;28;20130;-46
2022/03/18 05:01:37;;;;;;;11.00;4.60;;;;;;;5.21;65.19;103994.81;5036416;28;19921;-50
2022/03/18 05:04:05;;;;;;;11.93;4.63;;;;;;;5.18;65.40;103991.59;5035636;28;20046;-45
2022/03/18 05:06:33;;;;;;;10.57;4.07;;;;;;;5.14;65.47;103999.13;5035761;28;20045;-45
2022/03/18 05:09:02;;;;;;;10.65;4.53;;;;;;;5.13;65.70;104006.41;5035804;28;20107;-43
2022/03/18 05:11:30;;;;;;;10.63;4.05;;;;;;;5.15;65.61;104005.38;5035819;28;20060;-44
2022/03/18 05:13:58;;;;;;;9.98;4.63;;;;;;;5.16;65.15;104004.41;5035955;28;20094;-45
2022/03/18 05:16:26;;;;;;;12.65;4.63;;;;;;;5.13;65.49;104013.66;5035721;28;20041;-45
2022/03/18 05:18:54;;;;;;;10.32;4.43;;;;;;;5.13;65.49;104014.50;5035966;28;20041;-46
2022/03/18 05:21:22;;;;;;;11.82;4.50;;;;;;;5.15;65.54;104016.19;5036537;28;20063;-45
2022/03/18 05:23:49;;;;;;;9.45;4.28;;;;;;;5.11;65.68;104027.31;5034330;28;20052;-46
2022/03/18 05:26:17;;;;;;;11.70;4.43;;;;;;;5.08;65.56;104026.78;5035262;28;20052;-46
2022/03/18 05:28:46;;;;;;;11.13;5.40;;;;;;;5.05;65.65;104032.47;5034875;28;20049;-45
2022/03/18 05:31:13;;;;;;;10.95;4.68;;;;;;;5.03;65.77;104038.06;5035229;28;20048;-47
2022/03/18 05:33:41;;;;;;;12.73;4.80;;;;;;;4.98;65.86;104032.25;5033263;28;20145;-45
2022/03/18 05:36:09;;;;;;;12.27;6.13;;;;;;;4.94;65.92;104036.25;5034119;28;20034;-45
2022/03/18 05:38:36;;;;;;;12.90;6.35;;;;;;;4.87;66.29;104037.84;5033420;28;20048;-47
2022/03/18 05:41:04;;;;;;;13.20;5.35;;;;;;;4.85;66.74;104020.94;5035497;28;20060;-47
2022/03/18 05:43:31;;;;;;;11.32;4.95;;;;;;;4.88;66.78;104031.44;5034824;28;20514;-50
2022/03/18 05:45:59;;;;;;;11.68;4.50;;;;;;;4.89;66.93;104030.47;5035247;28;20038;-45
2022/03/18 05:48:27;;;;;;;12.68;5.03;;;;;;;4.86;66.30;104036.16;5033428;28;20052;-46
2022/03/18 05:50:55;;;;;;;12.93;4.90;;;;;;;4.75;67.44;104025.56;5034801;28;20048;-44
2022/03/18 05:53:22;;;;;;;12.27;4.57;;;;;;;4.69;67.27;104029.72;5034816;28;20037;-47
2022/03/18 05:58:36;;;;;;;14.45;5.70;;;;;;;4.63;68.45;104033.00;5034512;28;20041;-47
2022/03/18 06:01:03;;;;;;;13.75;5.70;;;;;;;4.69;67.54;104043.22;5033070;28;20049;-47
2022/03/18 06:03:32;;;;;;;13.45;5.20;;;;;;;4.67;67.94;104043.34;5033606;28;20381;-49
2022/03/18 06:06:00;;;;;;;15.85;5.38;;;;;;;4.68;68.15;104053.16;5034761;28;20033;-46
2022/03/18 06:14:01;;;;;;;14.60;5.45;;;;;;;4.56;68.74;104065.16;5034559;28;20038;-49
2022/03/18 06:16:29;;;;;;;10.15;4.93;;;;;;;4.53;68.28;104065.44;5033465;28;20041;-46
2022/03/18 06:18:57;;;;;;;13.60;5.75;;;;;;;4.51;69.30;104067.44;5034023;28;20160;-47
2022/03/18 06:21:25;;;;;;;13.02;5.30;;;;;;;4.54;69.11;104071.69;5052926;28;20049;-47
2022/03/18 06:23:52;;;;;;;13.60;5.18;;;;;;;4.59;69.08;104077.50;5053249;28;20076;-46
2022/03/18 06:26:20;;;;;;;13.27;5.40;;;;;;;4.64;69.24;104084.19;5053684;28;20048;-49
2022/03/18 06:28:50;;;;;;;12.98;5.30;;;;;;;4.73;69.70;104086.97;5053112;28;20052;-45
2022/03/18 06:31:18;;;;;;;17.30;5.68;;;;;;;4.79;69.26;104084.53;5033128;28;20037;-47
2022/03/18 06:33:46;;;;;;;12.05;5.47;;;;;;;4.81;69.23;104084.38;5033849;28;20140;-46
2022/03/18 06:36:14;;;;;;;15.38;5.63;;;;;;;4.85;69.31;104085.78;5034058;28;20053;-47
2022/03/18 06:38:42;;;;;;;17.85;6.35;;;;;;;4.89;69.36;104077.22;5033639;28;20049;-46
2022/03/18 06:41:10;;;;;;;20.55;6.00;;;;;;;4.95;69.65;104089.28;5032888;28;20041;-46
2022/03/18 06:43:37;;;;;;;15.73;5.95;;;;;;;4.97;69.57;104095.41;5033429;28;20047;-45
2022/03/18 06:46:05;;;;;;;15.20;5.57;;;;;;;4.97;69.46;104100.78;5033691;28;20049;-48
2022/03/18 06:48:32;;;;;;;17.02;5.90;;;;;;;4.97;70.03;104094.53;5033784;28;20041;-48
2022/03/18 06:51:00;;;;;;;16.08;6.45;;;;;;;4.99;70.35;104101.50;5042320;28;20052;-49
2022/03/18 06:53:28;;;;;;;17.27;6.38;;;;;;;4.95;71.07;104108.19;5032648;28;20041;-49
2022/03/18 06:55:56;;;;;;;16.67;5.85;;;;;;;4.93;71.76;104115.63;5033030;28;20072;-49
2022/03/18 06:58:23;;;;;;;20.88;6.45;;;;;;;4.97;71.68;104106.19;5032282;28;20049;-48
2022/03/18 07:00:51;;;;;;;18.40;6.53;;;;;;;5.02;71.63;104109.31;5032824;28;20033;-44
2022/03/18 07:03:19;;;;;;;18.50;6.55;;;;;;;5.06;71.85;104113.41;5033495;28;20426;-44
2022/03/18 07:05:51;;;;;;;20.75;6.90;;;;;;;5.09;72.14;104115.81;5033464;28;20049;-47
2022/03/18 07:08:19;;;;;;;24.58;6.82;;;;;;;5.12;72.48;104115.53;5031844;28;20382;-47
2022/03/18 07:10:47;;;;;;;18.13;5.97;;;;;;;5.21;72.83;104124.56;5032720;28;20060;-50
2022/03/18 07:13:16;;;;;;;13.77;6.10;;;;;;;5.29;72.65;104121.09;5032224;28;20053;-49
2022/03/18 07:15:44;;;;;;;21.98;6.65;;;;;;;5.37;72.56;104117.66;5033399;28;20510;-47
2022/03/18 07:18:12;;;;;;;16.58;6.57;;;;;;;5.43;72.50;104119.75;5032066;28;20080;-48
2022/03/18 07:20:39;;;;;;;22.75;6.55;;;;;;;5.47;72.80;104127.41;5032926;28;20045;-49
2022/03/18 07:23:09;;;;;;;15.38;5.85;;;;;;;5.52;72.94;104122.38;5033395;28;20042;-51
2022/03/18 07:25:39;;;;;;;18.25;6.32;;;;;;;5.55;73.33;104127.47;5033137;28;20044;-48
2022/03/18 07:28:08;;;;;;;16.17;6.07;;;;;;;5.60;73.55;104120.78;5032834;28;20072;-49
2022/03/18 07:30:41;;;;;;;19.98;7.32;;;;;;;5.65;73.61;104135.56;5032178;28;20130;-51
2022/03/18 07:33:09;;;;;;;19.85;6.85;;;;;;;5.68;74.29;104137.09;5031452;28;20500;-49
2022/03/18 07:35:37;;;;;;;17.58;6.50;;;;;;;5.70;74.47;104135.06;5033232;28;20141;-49
2022/03/18 07:38:08;;;;;;;18.77;6.63;;;;;;;5.73;74.32;104146.44;5032923;28;20685;-51
2022/03/18 07:40:37;;;;;;;20.58;7.82;;;;;;;5.76;74.80;104156.13;5032677;28;20069;-48
2022/03/18 07:43:06;;;;;;;25.63;7.75;;;;;;;5.74;75.45;104158.13;5033277;28;20128;-48
2022/03/18 07:45:35;;;;;;;21.13;7.57;;;;;;;5.76;76.04;104172.34;5031739;28;20080;-55
2022/03/18 07:48:05;;;;;;;24.77;6.90;;;;;;;5.80;76.08;104171.03;5032059;28;20076;-47
2022/03/18 07:50:34;;;;;;;21.10;7.15;;;;;;;5.88;75.53;104179.22;5036824;28;20132;-52
2022/03/18 07:53:06;;;;;;;24.60;8.13;;;;;;;5.87;75.46;104179.38;5048173;28;20042;-52
2022/03/18 07:55:35;;;;;;;20.70;7.60;;;;;;;5.89;75.00;104170.13;5051864;28;20041;-48
2022/03/18 07:58:03;;;;;;;24.50;7.78;;;;;;;5.96;75.12;104178.50;5049891;28;20041;-50
2022/03/18 08:00:31;;;;;;;24.85;8.00;;;;;;;6.05;74.81;104171.31;5032819;28;20073;-51
2022/03/18 08:02:58;;;;;;;18.80;6.60;;;;;;;6.11;74.90;104170.66;5033061;28;20099;-51
2022/03/18 08:05:26;;;;;;;22.00;7.45;;;;;;;6.16;74.52;104176.50;5031418;28;20496;-48
2022/03/18 08:07:57;;;;;;;19.25;6.50;;;;;;;6.20;75.51;104180.56;5033376;28;20507;-44
2022/03/18 08:10:25;;;;;;;19.30;6.82;;;;;;;6.23;75.47;104180.28;5035235;28;20041;-51
2022/03/18 08:12:53;;;;;;;17.88;6.15;;;;;;;6.26;75.56;104177.25;5033215;28;20042;-51
2022/03/18 08:15:21;;;;;;;16.98;6.38;;;;;;;6.31;75.80;104184.91;5032836;28;20045;-46
2022/03/18 08:17:52;;;;;;;16.80;5.80;;;;;;;6.33;75.68;104185.63;5045641;28;20064;-51
2022/03/18 08:23:14;;;;;;;17.05;6.10;;;;;;;6.39;74.64;104202.06;5056883;28;20384;-50
2022/03/18 08:25:42;;;;;;;12.00;5.38;;;;;;;6.44;74.18;104198.03;5055302;28;20060;-48
2022/03/18 08:28:10;;;;;;;17.10;5.65;;;;;;;6.46;73.87;104202.28;5054809;28;20039;-50
2022/03/18 08:30:39;;;;;;;15.32;5.53;;;;;;;6.50;74.00;104211.81;5055854;28;20041;-48
2022/03/18 08:33:07;;;;;;;17.63;5.03;;;;;;;6.56;74.58;104207.63;5056345;28;20060;-50
2022/03/18 08:35:36;;;;;;;15.98;5.47;;;;;;;6.59;73.77;104212.72;5056362;28;20047;-49
2022/03/18 08:38:07;;;;;;;16.95;6.25;;;;;;;6.61;74.36;104218.81;5056463;28;20484;-49
2022/03/18 08:40:36;;;;;;;15.38;4.95;;;;;;;6.63;74.15;104214.09;5054836;28;20492;-49
2022/03/18 08:43:09;;;;;;;19.55;5.97;;;;;;;6.66;73.74;104221.91;5031939;28;20133;-50
2022/03/18 08:45:37;;;;;;;17.50;5.70;;;;;;;6.66;73.66;104216.50;5036146;28;20377;-48
2022/03/18 08:48:06;;;;;;;17.65;5.70;;;;;;;6.71;73.61;104216.91;5036390;28;20041;-50
2022/03/18 08:50:34;;;;;;;19.35;6.10;;;;;;;6.75;73.88;104230.97;5042760;28;20049;-47
2022/03/18 08:53:09;;;;;;;17.38;6.75;;;;;;;6.78;72.97;104236.94;5048135;28;20125;-46
2022/03/18 08:55:39;;;;;;;21.93;7.93;;;;;;;6.85;72.79;104239.00;5055607;28;20053;-50
2022/03/18 08:58:08;;;;;;;17.45;6.55;;;;;;;6.91;71.88;104241.94;5050706;28;20328;-50
2022/03/18 09:00:36;;;;;;;15.60;5.50;;;;;;;6.99;71.14;104246.53;5039871;28;20090;-51
2022/03/18 09:03:04;;;;;;;13.55;5.18;;;;;;;7.05;71.16;104248.63;5036877;28;20412;-50
2022/03/18 09:05:32;;;;;;;16.70;4.95;;;;;;;7.12;70.05;104246.97;5041370;28;20043;-47
2022/03/18 09:07:59;;;;;;;17.58;5.00;;;;;;;7.15;69.50;104243.09;5035836;28;20044;-49
2022/03/18 09:10:28;;;;;;;15.68;5.40;;;;;;;7.17;69.11;104250.06;5042903;28;20057;-48
2022/03/18 09:12:58;;;;;;;14.65;4.65;;;;;;;7.22;68.63;104247.72;5038060;28;20487;-48
2022/03/18 09:15:27;;;;;;;13.15;4.93;;;;;;;7.27;67.83;104259.94;5036823;28;20045;-48
2022/03/18 09:17:55;;;;;;;16.33;4.78;;;;;;;7.31;68.14;104261.31;5037098;28;20547;-49
2022/03/18 09:20:22;;;;;;;13.23;4.85;;;;;;;7.41;68.50;104256.63;5043606;28;20083;-50
2022/03/18 09:22:50;;;;;;;14.60;4.78;;;;;;;7.48;67.70;104263.09;5050601;28;20041;-53
2022/03/18 09:25:18;;;;;;;14.05;4.47;;;;;;;7.51;66.90;104268.19;5048552;28;20041;-51
2022/03/18 09:27:45;;;;;;;15.27;4.70;;;;;;;7.55;67.52;104261.44;5035546;28;20461;-50
2022/03/18 09:30:14;;;;;;;14.13;4.40;;;;;;;7.75;63.37;104269.31;5037083;28;20042;-46
2022/03/18 09:32:42;;;;;;;12.45;4.00;;;;;;;7.82;62.13;104271.22;5038012;28;20045;-44
2022/03/18 09:35:11;;;;;;;17.88;3.75;;;;;;;7.91;61.76;104263.91;5047151;28;20040;-49
2022/03/18 09:37:39;;;;;;;13.27;3.67;;;;;;;7.96;60.48;104268.84;5039118;28;20124;-47
2022/03/18 09:40:08;;;;;;;11.40;3.60;;;;;;;7.99;60.69;104272.09;5055941;28;20051;-44
2022/03/18 09:43:04;;;;;;;9.02;3.15;;;;;;;8.10;59.20;104269.09;5052817;28;20045;-48
2022/03/18 09:45:36;;;;;;;11.32;3.20;;;;;;;8.22;56.71;104271.47;5039436;28;20104;-48
2022/03/18 09:48:06;;;;;;;13.57;3.70;;;;;;;8.25;56.91;104265.69;5050352;28;20050;-46
2022/03/18 09:50:35;;;;;;;7.65;3.35;;;;;;;8.22;56.77;104276.91;5048659;28;20055;-50
2022/03/18 09:53:04;;;;;;;8.93;3.13;;;;;;;8.17;56.21;104268.41;5038337;28;20042;-48
2022/03/18 09:55:34;;;;;;;9.55;3.25;;;;;;;8.19;56.77;104277.25;5037864;28;20056;-46
2022/03/18 09:58:02;;;;;;;11.55;3.25;;;;;;;8.21;56.99;104280.66;5033494;28;20133;-51
2022/03/18 10:00:30;;;;;;;10.07;2.92;;;;;;;8.38;55.14;104287.81;5051909;28;20047;-47
2022/03/18 10:03:12;;;;;;;9.20;3.20;;;;;;;8.49;54.42;104283.91;5033943;28;20037;-46
2022/03/18 10:05:57;;;;;;;9.55;2.90;;;;;;;8.48;54.30;104287.66;5051365;28;20041;-47
2022/03/18 10:08:27;;;;;;;8.20;2.70;;;;;;;8.54;54.23;104292.44;5053210;28;20128;-48
2022/03/18 10:10:54;;;;;;;8.88;3.30;;;;;;;8.57;54.97;104293.97;5036888;28;20049;-48
2022/03/18 10:13:22;;;;;;;9.68;3.30;;;;;;;8.60;55.50;104301.78;5052768;28;20056;-45
2022/03/18 10:15:52;;;;;;;8.68;3.08;;;;;;;8.61;55.18;104287.16;5046909;28;20072;-47
2022/03/18 10:18:20;;;;;;;13.20;3.78;;;;;;;8.62;56.67;104299.75;5042037;28;20037;-45
2022/03/18 10:20:50;;;;;;;13.65;3.65;;;;;;;8.66;56.98;104295.66;5043095;28;20395;-47
2022/03/18 10:23:21;;;;;;;12.95;4.05;;;;;;;8.70;55.60;104291.59;5040736;28;20048;-48
2022/03/18 10:25:57;;;;;;;8.73;3.40;;;;;;;8.77;56.09;104292.59;5049624;28;20048;-47
2022/03/18 10:28:44;;;;;;;9.75;3.10;;;;;;;8.96;53.66;104289.53;5051532;28;20079;-45
2022/03/18 10:31:16;;;;;;;10.70;3.83;;;;;;;9.07;53.93;104290.22;5043389;28;20033;-47
2022/03/18 10:39:41;;;;;;;13.48;3.70;;;;;;;9.13;54.92;104286.78;5040639;28;20059;-46
2022/03/18 10:42:14;;;;;;;10.20;3.38;;;;;;;9.09;55.14;104293.59;5040091;28;20041;-45
2022/03/18 10:44:48;;;;;;;9.07;3.55;;;;;;;9.19;54.84;104291.56;5047867;28;20140;-46
2022/03/18 10:47:27;;;;;;;8.73;3.20;;;;;;;9.43;54.82;104287.03;5035139;28;20137;-46
2022/03/18 10:50:10;;;;;;;8.95;3.08;;;;;;;9.53;53.28;104294.00;5034007;28;20124;-48
2022/03/18 10:52:39;;;;;;;12.20;3.30;;;;;;;9.56;52.85;104290.06;5050528;28;20033;-46
2022/03/18 10:55:25;;;;;;;8.20;3.17;;;;;;;9.49;53.20;104287.19;5032241;28;20052;-48
2022/03/18 10:57:59;;;;;;;12.98;3.58;;;;;;;9.49;53.93;104286.34;5033850;28;20040;-44
2022/03/18 11:00:34;;;;;;;12.13;3.53;;;;;;;9.45;54.44;104293.16;5040032;28;20064;-44
2022/03/18 11:03:04;;;;;;;12.95;4.43;;;;;;;9.51;61.05;104287.03;5051946;28;20037;-50
2022/03/18 11:05:40;;;;;;;10.98;3.28;;;;;;;9.75;54.62;104294.25;5044437;28;20471;-48
2022/03/18 11:08:12;;;;;;;8.75;3.58;;;;;;;9.82;53.40;104287.06;5040568;28;20051;-45
2022/03/18 11:13:42;;;;;;;9.48;3.60;;;;;;;9.74;54.12;104282.53;5051380;28;20055;-45
2022/03/18 11:16:13;;;;;;;11.88;3.83;;;;;;;9.79;54.21;104284.72;5050013;28;20136;-45
2022/03/18 11:18:41;;;;;;;10.32;3.55;;;;;;;9.90;55.22;104284.28;5038835;28;20391;-46
2022/03/18 11:21:10;;;;;;;11.93;3.83;;;;;;;9.99;54.11;104283.22;5047301;28;20056;-42
2022/03/18 11:23:40;;;;;;;12.55;3.92;;;;;;;10.06;52.91;104286.09;5051310;28;20033;-45
2022/03/18 11:26:08;;;;;;;8.07;2.92;;;;;;;10.11;52.31;104285.56;5043441;28;20053;-46
2022/03/18 11:28:36;;;;;;;10.93;3.33;;;;;;;10.14;52.00;104272.41;5032066;28;20037;-48
2022/03/18 11:31:05;;;;;;;12.63;3.97;;;;;;;10.15;53.06;104281.44;5049386;28;20367;-46
2022/03/18 11:33:34;;;;;;;11.05;3.70;;;;;;;10.31;52.19;104288.69;5050418;28;20053;-45
2022/03/18 11:36:13;;;;;;;10.35;3.70;;;;;;;10.48;52.14;104286.69;5039173;28;20049;-47
2022/03/18 11:38:59;;;;;;;10.07;4.03;;;;;;;10.57;52.64;104281.00;5033394;28;20048;-49
2022/03/18 11:41:49;;;;;;;12.43;4.10;;;;;;;10.55;51.81;104293.13;5038207;28;20042;-51
2022/03/18 11:44:40;;;;;;;9.23;4.00;;;;;;;10.54;52.03;104275.91;5037255;28;20550;-48
2022/03/18 11:47:20;;;;;;;17.00;7.18;;;;;;;10.52;52.17;104286.16;5042771;28;20042;-46
2022/03/18 11:49:53;;;;;;;27.90;13.50;;;;;;;10.49;52.48;104288.41;5042893;28;20095;-47
2022/03/18 11:52:21;;;;;;;16.52;7.65;;;;;;;10.52;51.95;104288.88;5032092;28;20057;-45
2022/03/18 11:54:55;;;;;;;13.02;5.43;;;;;;;10.53;52.25;104285.09;5000807;28;20149;-46
2022/03/18 11:57:34;;;;;;;27.02;12.02;;;;;;;10.49;52.90;104282.97;5042452;28;20041;-45
2022/03/18 12:00:05;;;;;;;31.95;15.57;;;;;;;10.50;53.15;104268.28;5042138;28;20056;-48
2022/03/18 12:02:35;;;;;;;26.55;12.65;;;;;;;10.45;53.54;104272.38;5033213;28;20041;-46
2022/03/18 12:05:05;;;;;;;20.58;4.72;;;;;;;10.47;52.96;104274.09;5029845;28;20107;-48
2022/03/18 12:07:51;;;;;;;11.45;3.47;;;;;;;10.59;52.49;104270.75;5052944;28;20084;-47